sensor_id;sensor_type;location;lat;lon;timestamp;pressure;altitude;pressure_sealevel;temperature;humidity
65553;BME280;52465;51.560;14.368;2022-12-18T00:01:17;101890.78;;;4.56;63.60
65553;BME280;52465;51.560;14.368;2022-12-18T00:03:46;101899.41;;;4.56;63.91
65553;BME280;52465;51.560;14.368;2022-12-18T00:06:12;101875.28;;;4.37;64.13
65553;BME280;52465;51.560;14.368;2022-12-18T00:08:39;101898.78;;;4.51;63.69
65553;BME280;52465;51.560;14.368;2022-12-18T00:11:06;101886.13;;;4.45;63.66
65553;BME280;52465;51.560;14.368;2022-12-18T00:13:33;101896.19;;;4.51;64.12
65553;BME280;52465;51.560;14.368;2022-12-18T00:16:03;101856.69;;;4.29;63.97
65553;BME280;52465;51.560;14.368;2022-12-18T00:18:31;101886.88;;;4.47;63.95
65553;BME280;52465;51.560;14.368;2022-12-18T00:21:02;101899.53;;;4.53;63.64
65553;BME280;52465;51.560;14.368;2022-12-18T00:23:28;101897.78;;;4.54;63.41
65553;BME280;52465;51.560;14.368;2022-12-18T00:25:54;101892.75;;;4.50;63.30
65553;BME280;52465;51.560;14.368;2022-12-18T00:28:19;101880.94;;;4.45;63.59
65553;BME280;52465;51.560;14.368;2022-12-18T00:30:45;101884.38;;;4.45;63.72
65553;BME280;52465;51.560;14.368;2022-12-18T00:33:10;101897.88;;;4.52;63.44
65553;BME280;52465;51.560;14.368;2022-12-18T00:35:35;101873.41;;;4.40;64.04
65553;BME280;52465;51.560;14.368;2022-12-18T00:38:01;101888.41;;;4.51;63.66
65553;BME280;52465;51.560;14.368;2022-12-18T00:40:26;101869.44;;;4.33;63.85
65553;BME280;52465;51.560;14.368;2022-12-18T00:42:52;101880.72;;;4.32;63.61
65553;BME280;52465;51.560;14.368;2022-12-18T00:45:28;101901.16;;;4.56;63.74
65553;BME280;52465;51.560;14.368;2022-12-18T00:47:55;101892.84;;;4.49;63.93
65553;BME280;52465;51.560;14.368;2022-12-18T00:50:24;101910.69;;;4.55;63.73
65553;BME280;52465;51.560;14.368;2022-12-18T00:52:51;101901.78;;;4.43;63.38
65553;BME280;52465;51.560;14.368;2022-12-18T00:55:17;101915.28;;;4.50;63.77
65553;BME280;52465;51.560;14.368;2022-12-18T00:57:43;101892.25;;;4.44;63.83
65553;BME280;52465;51.560;14.368;2022-12-18T01:00:13;101908.47;;;4.47;63.70
65553;BME280;52465;51.560;14.368;2022-12-18T01:02:40;101908.56;;;4.46;63.96
65553;BME280;52465;51.560;14.368;2022-12-18T01:05:06;101902.63;;;4.44;63.39
65553;BME280;52465;51.560;14.368;2022-12-18T01:07:32;101892.28;;;4.42;63.60
65553;BME280;52465;51.560;14.368;2022-12-18T01:09:57;101903.44;;;4.44;63.75
65553;BME280;52465;51.560;14.368;2022-12-18T01:12:22;101911.84;;;4.49;63.31
65553;BME280;52465;51.560;14.368;2022-12-18T01:14:48;101916.09;;;4.50;63.72
65553;BME280;52465;51.560;14.368;2022-12-18T01:17:13;101920.50;;;4.48;63.91
65553;BME280;52465;51.560;14.368;2022-12-18T01:19:39;101893.84;;;4.29;63.06
65553;BME280;52465;51.560;14.368;2022-12-18T01:22:05;101927.44;;;4.48;63.63
65553;BME280;52465;51.560;14.368;2022-12-18T01:24:30;101909.69;;;4.40;63.56
65553;BME280;52465;51.560;14.368;2022-12-18T01:26:55;101914.56;;;4.46;63.53
65553;BME280;52465;51.560;14.368;2022-12-18T01:29:22;101908.78;;;4.41;63.45
65553;BME280;52465;51.560;14.368;2022-12-18T01:31:48;101916.94;;;4.51;63.35
65553;BME280;52465;51.560;14.368;2022-12-18T01:34:13;101916.34;;;4.46;63.58
65553;BME280;52465;51.560;14.368;2022-12-18T01:36:38;101897.19;;;4.31;63.22
65553;BME280;52465;51.560;14.368;2022-12-18T01:39:10;101929.00;;;4.52;63.32
65553;BME280;52465;51.560;14.368;2022-12-18T01:41:36;101892.31;;;4.25;63.32
65553;BME280;52465;51.560;14.368;2022-12-18T01:47:39;101927.53;;;4.46;63.79
65553;BME280;52465;51.560;14.368;2022-12-18T01:50:29;101930.00;;;4.49;63.77
65553;BME280;52465;51.560;14.368;2022-12-18T01:52:59;101903.81;;;4.37;63.61
65553;BME280;52465;51.560;14.368;2022-12-18T01:55:36;101912.44;;;4.37;63.27
65553;BME280;52465;51.560;14.368;2022-12-18T01:58:03;101938.63;;;4.50;63.73
65553;BME280;52465;51.560;14.368;2022-12-18T02:00:29;101900.91;;;4.25;63.98
65553;BME280;52465;51.560;14.368;2022-12-18T02:02:55;101935.19;;;4.49;63.75
65553;BME280;52465;51.560;14.368;2022-12-18T02:05:38;101934.25;;;4.50;63.96
65553;BME280;52465;51.560;14.368;2022-12-18T02:08:20;101926.69;;;4.46;63.69
65553;BME280;52465;51.560;14.368;2022-12-18T02:11:06;101941.22;;;4.50;63.45
65553;BME280;52465;51.560;14.368;2022-12-18T02:13:46;101944.56;;;4.52;63.41
65553;BME280;52465;51.560;14.368;2022-12-18T02:19:03;101948.50;;;4.42;63.26
65553;BME280;52465;51.560;14.368;2022-12-18T02:26:53;101931.19;;;4.42;63.64
65553;BME280;52465;51.560;14.368;2022-12-18T02:29:27;101923.50;;;4.41;63.33
65553;BME280;52465;51.560;14.368;2022-12-18T02:32:00;101942.03;;;4.50;63.55
65553;BME280;52465;51.560;14.368;2022-12-18T02:34:36;101948.97;;;4.50;63.49
65553;BME280;52465;51.560;14.368;2022-12-18T02:37:05;101921.44;;;4.30;63.54
65553;BME280;52465;51.560;14.368;2022-12-18T02:39:34;101956.81;;;4.48;63.31
65553;BME280;52465;51.560;14.368;2022-12-18T02:42:00;101958.53;;;4.49;63.77
65553;BME280;52465;51.560;14.368;2022-12-18T02:44:32;101949.03;;;4.48;63.56
65553;BME280;52465;51.560;14.368;2022-12-18T02:46:58;101944.84;;;4.46;63.83
65553;BME280;52465;51.560;14.368;2022-12-18T02:55:00;101952.72;;;4.44;63.65
65553;BME280;52465;51.560;14.368;2022-12-18T02:57:33;101950.66;;;4.51;63.16
65553;BME280;52465;51.560;14.368;2022-12-18T03:00:07;101949.81;;;4.50;63.55
65553;BME280;52465;51.560;14.368;2022-12-18T03:02:45;101960.19;;;4.50;63.53
65553;BME280;52465;51.560;14.368;2022-12-18T03:05:22;101938.34;;;4.37;63.02
65553;BME280;52465;51.560;14.368;2022-12-18T03:08:08;101964.53;;;4.50;63.20
65553;BME280;52465;51.560;14.368;2022-12-18T03:10:39;101967.06;;;4.51;63.59
65553;BME280;52465;51.560;14.368;2022-12-18T03:13:23;101944.16;;;4.42;63.14
65553;BME280;52465;51.560;14.368;2022-12-18T03:15:55;101955.53;;;4.40;63.52
65553;BME280;52465;51.560;14.368;2022-12-18T03:18:30;101957.75;;;4.47;63.71
65553;BME280;52465;51.560;14.368;2022-12-18T03:21:05;101962.78;;;4.50;63.40
65553;BME280;52465;51.560;14.368;2022-12-18T03:23:35;101967.97;;;4.50;63.78
65553;BME280;52465;51.560;14.368;2022-12-18T03:26:05;101951.94;;;4.42;63.54
65553;BME280;52465;51.560;14.368;2022-12-18T03:28:34;101962.00;;;4.48;63.66
65553;BME280;52465;51.560;14.368;2022-12-18T03:31:05;101951.19;;;4.40;63.71
65553;BME280;52465;51.560;14.368;2022-12-18T03:33:33;101960.19;;;4.50;63.48
65553;BME280;52465;51.560;14.368;2022-12-18T03:36:03;101931.72;;;4.32;63.59
65553;BME280;52465;51.560;14.368;2022-12-18T03:38:28;101957.75;;;4.47;63.86
65553;BME280;52465;51.560;14.368;2022-12-18T03:41:10;101936.75;;;4.35;63.32
65553;BME280;52465;51.560;14.368;2022-12-18T03:49:25;101961.88;;;4.51;63.60
65553;BME280;52465;51.560;14.368;2022-12-18T03:52:04;101951.28;;;4.39;63.43
65553;BME280;52465;51.560;14.368;2022-12-18T03:54:33;101961.16;;;4.48;63.53
65553;BME280;52465;51.560;14.368;2022-12-18T03:57:10;101949.44;;;4.41;63.83
65553;BME280;52465;51.560;14.368;2022-12-18T03:59:38;101955.97;;;4.48;63.91
65553;BME280;52465;51.560;14.368;2022-12-18T04:02:06;101939.28;;;4.36;63.86
65553;BME280;52465;51.560;14.368;2022-12-18T04:04:33;101965.38;;;4.50;63.73
65553;BME280;52465;51.560;14.368;2022-12-18T04:07:00;101962.88;;;4.49;63.50
65553;BME280;52465;51.560;14.368;2022-12-18T04:09:26;101957.44;;;4.36;63.26
65553;BME280;52465;51.560;14.368;2022-12-18T04:11:55;101980.31;;;4.45;63.78
65553;BME280;52465;51.560;14.368;2022-12-18T04:14:20;101970.34;;;4.38;63.46
65553;BME280;52465;51.560;14.368;2022-12-18T04:16:52;101968.50;;;4.40;63.74
65553;BME280;52465;51.560;14.368;2022-12-18T04:19:17;101945.22;;;4.21;63.57
65553;BME280;52465;51.560;14.368;2022-12-18T04:21:43;101977.88;;;4.42;63.40
65553;BME280;52465;51.560;14.368;2022-12-18T04:24:08;101981.38;;;4.41;63.99
65553;BME280;52465;51.560;14.368;2022-12-18T04:26:34;101982.16;;;4.43;63.95
65553;BME280;52465;51.560;14.368;2022-12-18T04:28:59;101969.72;;;4.33;63.30
65553;BME280;52465;51.560;14.368;2022-12-18T04:31:25;101969.19;;;4.43;63.96
65553;BME280;52465;51.560;14.368;2022-12-18T04:33:50;101975.34;;;4.41;63.23
65553;BME280;52465;51.560;14.368;2022-12-18T04:36:15;101995.66;;;4.50;63.67
65553;BME280;52465;51.560;14.368;2022-12-18T04:38:41;102004.38;;;4.49;63.75
65553;BME280;52465;51.560;14.368;2022-12-18T04:41:06;101990.22;;;4.37;63.95
65553;BME280;52465;51.560;14.368;2022-12-18T04:43:31;101986.25;;;4.30;64.12
65553;BME280;52465;51.560;14.368;2022-12-18T04:46:05;102002.34;;;4.37;63.37
65553;BME280;52465;51.560;14.368;2022-12-18T04:48:31;102011.94;;;4.35;63.55
65553;BME280;52465;51.560;14.368;2022-12-18T04:50:59;102004.75;;;4.22;63.48
65553;BME280;52465;51.560;14.368;2022-12-18T04:53:25;102017.44;;;4.29;63.61
65553;BME280;52465;51.560;14.368;2022-12-18T04:55:50;101996.50;;;4.14;63.50
65553;BME280;52465;51.560;14.368;2022-12-18T04:58:16;102019.19;;;4.28;63.57
65553;BME280;52465;51.560;14.368;2022-12-18T05:00:41;101987.88;;;4.14;63.76
65553;BME280;52465;51.560;14.368;2022-12-18T05:03:07;102012.25;;;4.29;63.38
65553;BME280;52465;51.560;14.368;2022-12-18T05:05:34;102002.00;;;4.25;63.64
65553;BME280;52465;51.560;14.368;2022-12-18T05:08:00;101993.59;;;4.20;63.58
65553;BME280;52465;51.560;14.368;2022-12-18T05:10:25;102007.06;;;4.29;63.15
65553;BME280;52465;51.560;14.368;2022-12-18T05:12:51;101995.53;;;4.17;63.21
65553;BME280;52465;51.560;14.368;2022-12-18T05:15:32;102020.66;;;4.34;63.50
65553;BME280;52465;51.560;14.368;2022-12-18T05:17:58;101994.91;;;4.12;63.52
65553;BME280;52465;51.560;14.368;2022-12-18T05:20:25;102022.47;;;4.32;63.26
65553;BME280;52465;51.560;14.368;2022-12-18T05:22:52;102019.03;;;4.31;63.63
65553;BME280;52465;51.560;14.368;2022-12-18T05:25:19;102017.28;;;4.32;63.10
65553;BME280;52465;51.560;14.368;2022-12-18T05:27:45;101998.66;;;4.23;63.22
65553;BME280;52465;51.560;14.368;2022-12-18T05:30:11;102027.44;;;4.36;63.49
65553;BME280;52465;51.560;14.368;2022-12-18T05:32:37;102018.97;;;4.33;63.47
65553;BME280;52465;51.560;14.368;2022-12-18T05:35:03;102025.84;;;4.34;63.38
65553;BME280;52465;51.560;14.368;2022-12-18T05:37:29;102001.56;;;4.17;63.37
65553;BME280;52465;51.560;14.368;2022-12-18T05:39:54;101993.91;;;4.14;63.20
65553;BME280;52465;51.560;14.368;2022-12-18T05:42:19;102024.84;;;4.36;63.23
65553;BME280;52465;51.560;14.368;2022-12-18T05:44:45;102021.63;;;4.31;63.31
65553;BME280;52465;51.560;14.368;2022-12-18T05:47:10;102035.06;;;4.39;63.07
65553;BME280;52465;51.560;14.368;2022-12-18T05:49:38;102023.66;;;4.24;63.52
65553;BME280;52465;51.560;14.368;2022-12-18T05:52:03;102035.22;;;4.36;63.05
65553;BME280;52465;51.560;14.368;2022-12-18T05:54:29;102029.34;;;4.33;63.54
65553;BME280;52465;51.560;14.368;2022-12-18T05:56:55;102034.53;;;4.33;63.17
65553;BME280;52465;51.560;14.368;2022-12-18T05:59:20;102058.41;;;4.39;62.74
65553;BME280;52465;51.560;14.368;2022-12-18T06:01:46;102054.97;;;4.39;63.20
65553;BME280;52465;51.560;14.368;2022-12-18T06:04:12;102055.31;;;4.31;63.18
65553;BME280;52465;51.560;14.368;2022-12-18T06:06:37;102041.81;;;4.24;63.45
65553;BME280;52465;51.560;14.368;2022-12-18T06:09:03;102056.94;;;4.34;63.43
65553;BME280;52465;51.560;14.368;2022-12-18T06:11:43;102071.28;;;4.41;63.32
65553;BME280;52465;51.560;14.368;2022-12-18T06:14:09;102044.19;;;4.29;63.00
65553;BME280;52465;51.560;14.368;2022-12-18T06:16:35;102039.00;;;4.29;63.25
65553;BME280;52465;51.560;14.368;2022-12-18T06:19:03;102049.00;;;4.37;63.46
65553;BME280;52465;51.560;14.368;2022-12-18T06:21:29;102051.75;;;4.34;63.36
65553;BME280;52465;51.560;14.368;2022-12-18T06:23:55;102058.22;;;4.25;63.56
65553;BME280;52465;51.560;14.368;2022-12-18T06:26:21;102077.53;;;4.37;63.52
65553;BME280;52465;51.560;14.368;2022-12-18T06:28:46;102053.94;;;4.24;63.37
65553;BME280;52465;51.560;14.368;2022-12-18T06:31:12;102089.44;;;4.41;63.42
65553;BME280;52465;51.560;14.368;2022-12-18T06:33:38;102081.75;;;4.39;63.06
65553;BME280;52465;51.560;14.368;2022-12-18T06:36:06;102051.50;;;4.21;63.33
65553;BME280;52465;51.560;14.368;2022-12-18T06:38:40;102085.94;;;4.42;63.04
65553;BME280;52465;51.560;14.368;2022-12-18T06:41:10;102059.03;;;4.25;62.88
65553;BME280;52465;51.560;14.368;2022-12-18T06:43:36;102070.00;;;4.32;63.18
65553;BME280;52465;51.560;14.368;2022-12-18T06:46:03;102061.59;;;4.27;63.29
65553;BME280;52465;51.560;14.368;2022-12-18T06:48:29;102091.22;;;4.40;62.96
65553;BME280;52465;51.560;14.368;2022-12-18T06:50:55;102087.00;;;4.38;63.17
65553;BME280;52465;51.560;14.368;2022-12-18T06:53:21;102067.06;;;4.21;62.88
65553;BME280;52465;51.560;14.368;2022-12-18T06:55:46;102082.03;;;4.33;63.58
65553;BME280;52465;51.560;14.368;2022-12-18T06:58:14;102087.22;;;4.33;63.66
65553;BME280;52465;51.560;14.368;2022-12-18T07:00:41;102104.16;;;4.40;63.06
65553;BME280;52465;51.560;14.368;2022-12-18T07:03:07;102096.88;;;4.30;63.01
65553;BME280;52465;51.560;14.368;2022-12-18T07:05:32;102115.38;;;4.41;62.97
65553;BME280;52465;51.560;14.368;2022-12-18T07:07:58;102123.16;;;4.41;63.61
65553;BME280;52465;51.560;14.368;2022-12-18T07:10:24;102112.25;;;4.34;63.18
65553;BME280;52465;51.560;14.368;2022-12-18T07:12:52;102112.16;;;4.36;63.27
65553;BME280;52465;51.560;14.368;2022-12-18T07:15:17;102118.38;;;4.32;63.36
65553;BME280;52465;51.560;14.368;2022-12-18T07:17:43;102129.34;;;4.38;63.25
65553;BME280;52465;51.560;14.368;2022-12-18T07:20:09;102124.19;;;4.37;63.18
65553;BME280;52465;51.560;14.368;2022-12-18T07:22:34;102127.38;;;4.43;63.53
65553;BME280;52465;51.560;14.368;2022-12-18T07:25:00;102119.03;;;4.37;63.03
65553;BME280;52465;51.560;14.368;2022-12-18T07:27:25;102117.63;;;4.30;63.20
65553;BME280;52465;51.560;14.368;2022-12-18T07:29:51;102127.88;;;4.33;62.96
65553;BME280;52465;51.560;14.368;2022-12-18T07:32:16;102141.31;;;4.41;63.23
65553;BME280;52465;51.560;14.368;2022-12-18T07:34:42;102131.31;;;4.33;63.28
65553;BME280;52465;51.560;14.368;2022-12-18T07:37:07;102133.41;;;4.44;63.05
65553;BME280;52465;51.560;14.368;2022-12-18T07:39:33;102132.56;;;4.43;63.35
65553;BME280;52465;51.560;14.368;2022-12-18T07:41:58;102149.81;;;4.44;63.44
65553;BME280;52465;51.560;14.368;2022-12-18T07:44:42;102146.50;;;4.41;63.10
65553;BME280;52465;51.560;14.368;2022-12-18T07:47:08;102074.38;;;3.92;63.73
65553;BME280;52465;51.560;14.368;2022-12-18T07:49:33;102144.28;;;4.33;63.06
65553;BME280;52465;51.560;14.368;2022-12-18T07:51:58;102142.78;;;4.28;63.44
65553;BME280;52465;51.560;14.368;2022-12-18T07:54:24;102152.69;;;4.38;63.00
65553;BME280;52465;51.560;14.368;2022-12-18T07:56:50;102119.31;;;4.12;63.11
65553;BME280;52465;51.560;14.368;2022-12-18T07:59:16;102149.28;;;4.36;63.04
65553;BME280;52465;51.560;14.368;2022-12-18T08:01:44;102150.97;;;4.37;62.99
65553;BME280;52465;51.560;14.368;2022-12-18T08:04:10;102145.59;;;4.42;63.26
65553;BME280;52465;51.560;14.368;2022-12-18T08:06:35;102125.59;;;4.25;62.95
65553;BME280;52465;51.560;14.368;2022-12-18T08:09:01;102112.94;;;4.19;62.92
65553;BME280;52465;51.560;14.368;2022-12-18T08:11:28;102115.31;;;4.23;63.11
65553;BME280;52465;51.560;14.368;2022-12-18T08:13:55;102126.44;;;4.25;63.03
65553;BME280;52465;51.560;14.368;2022-12-18T08:16:26;102147.50;;;4.38;63.45
65553;BME280;52465;51.560;14.368;2022-12-18T08:18:53;102146.41;;;4.42;63.18
65553;BME280;52465;51.560;14.368;2022-12-18T08:21:22;102132.97;;;4.34;63.44
65553;BME280;52465;51.560;14.368;2022-12-18T08:23:49;102155.00;;;4.44;62.84
65553;BME280;52465;51.560;14.368;2022-12-18T08:26:16;102138.91;;;4.36;63.22
65553;BME280;52465;51.560;14.368;2022-12-18T08:28:42;102137.13;;;4.38;63.23
65553;BME280;52465;51.560;14.368;2022-12-18T08:31:10;102135.22;;;4.42;63.31
65553;BME280;52465;51.560;14.368;2022-12-18T08:33:37;102127.91;;;4.31;63.35
65553;BME280;52465;51.560;14.368;2022-12-18T08:36:04;102123.53;;;4.33;63.11
65553;BME280;52465;51.560;14.368;2022-12-18T08:38:33;102093.25;;;4.15;62.92
65553;BME280;52465;51.560;14.368;2022-12-18T08:41:05;102137.97;;;4.39;63.38
65553;BME280;52465;51.560;14.368;2022-12-18T08:43:31;102136.41;;;4.35;63.06
65553;BME280;52465;51.560;14.368;2022-12-18T08:46:17;102145.53;;;4.43;63.20
65553;BME280;52465;51.560;14.368;2022-12-18T08:48:46;102132.22;;;4.32;63.36
65553;BME280;52465;51.560;14.368;2022-12-18T08:51:12;102144.66;;;4.43;63.00
65553;BME280;52465;51.560;14.368;2022-12-18T08:53:40;102124.69;;;4.26;63.01
65553;BME280;52465;51.560;14.368;2022-12-18T08:56:05;102153.31;;;4.43;63.04
65553;BME280;52465;51.560;14.368;2022-12-18T08:58:31;102137.31;;;4.34;63.51
65553;BME280;52465;51.560;14.368;2022-12-18T09:01:00;102107.00;;;4.17;63.07
65553;BME280;52465;51.560;14.368;2022-12-18T09:03:27;102112.84;;;4.20;63.22
65553;BME280;52465;51.560;14.368;2022-12-18T09:05:52;102134.84;;;4.31;63.56
65553;BME280;52465;51.560;14.368;2022-12-18T09:08:17;102112.38;;;4.12;63.18
65553;BME280;52465;51.560;14.368;2022-12-18T09:10:47;102154.63;;;4.33;63.32
65553;BME280;52465;51.560;14.368;2022-12-18T09:13:14;102180.00;;;4.45;63.08
65553;BME280;52465;51.560;14.368;2022-12-18T09:15:42;102144.75;;;4.22;63.40
65553;BME280;52465;51.560;14.368;2022-12-18T09:18:09;102163.09;;;4.37;63.25
65553;BME280;52465;51.560;14.368;2022-12-18T09:20:36;102156.31;;;4.34;63.22
65553;BME280;52465;51.560;14.368;2022-12-18T09:23:05;102154.56;;;4.35;63.17
65553;BME280;52465;51.560;14.368;2022-12-18T09:25:37;102144.28;;;4.33;63.07
65553;BME280;52465;51.560;14.368;2022-12-18T09:28:05;102159.38;;;4.42;63.04
65553;BME280;52465;51.560;14.368;2022-12-18T09:30:32;102143.56;;;4.30;62.77
65553;BME280;52465;51.560;14.368;2022-12-18T09:33:00;102124.28;;;4.16;63.12
65553;BME280;52465;51.560;14.368;2022-12-18T09:35:26;102162.25;;;4.36;63.05
65553;BME280;52465;51.560;14.368;2022-12-18T09:37:53;102176.69;;;4.42;63.03
65553;BME280;52465;51.560;14.368;2022-12-18T09:40:22;102160.66;;;4.34;62.91
65553;BME280;52465;51.560;14.368;2022-12-18T09:43:03;102140.31;;;4.24;63.34
65553;BME280;52465;51.560;14.368;2022-12-18T09:48:15;102161.22;;;4.40;62.97
65553;BME280;52465;51.560;14.368;2022-12-18T09:50:47;102188.63;;;4.46;63.44
65553;BME280;52465;51.560;14.368;2022-12-18T09:53:26;102198.06;;;4.47;63.12
65553;BME280;52465;51.560;14.368;2022-12-18T09:55:55;102171.13;;;4.32;63.62
65553;BME280;52465;51.560;14.368;2022-12-18T10:01:00;102186.22;;;4.41;63.35
65553;BME280;52465;51.560;14.368;2022-12-18T10:03:26;102192.41;;;4.39;63.07
65553;BME280;52465;51.560;14.368;2022-12-18T10:06:13;102201.59;;;4.46;62.94
65553;BME280;52465;51.560;14.368;2022-12-18T10:09:01;102199.06;;;4.44;62.97
65553;BME280;52465;51.560;14.368;2022-12-18T10:14:29;102187.03;;;4.43;62.91
65553;BME280;52465;51.560;14.368;2022-12-18T10:17:26;102181.97;;;4.40;62.96
65553;BME280;52465;51.560;14.368;2022-12-18T10:20:01;102167.88;;;4.46;63.19
65553;BME280;52465;51.560;14.368;2022-12-18T10:22:49;102151.69;;;4.41;63.41
65553;BME280;52465;51.560;14.368;2022-12-18T10:27:59;102146.22;;;4.47;62.73
65553;BME280;52465;51.560;14.368;2022-12-18T10:30:26;102134.56;;;4.37;62.90
65553;BME280;52465;51.560;14.368;2022-12-18T10:32:52;102134.44;;;4.40;63.07
65553;BME280;52465;51.560;14.368;2022-12-18T10:35:19;102136.69;;;4.47;63.01
65553;BME280;52465;51.560;14.368;2022-12-18T10:40:26;102100.94;;;4.35;63.13
65553;BME280;52465;51.560;14.368;2022-12-18T10:43:12;102123.78;;;4.46;62.94
65553;BME280;52465;51.560;14.368;2022-12-18T10:45:39;102124.50;;;4.49;62.94
65553;BME280;52465;51.560;14.368;2022-12-18T10:48:17;102115.94;;;4.47;63.17
65553;BME280;52465;51.560;14.368;2022-12-18T10:50:47;102104.63;;;4.48;63.01
65553;BME280;52465;51.560;14.368;2022-12-18T10:53:21;102103.75;;;4.49;62.99
65553;BME280;52465;51.560;14.368;2022-12-18T10:55:55;102104.81;;;4.45;62.98
65553;BME280;52465;51.560;14.368;2022-12-18T10:58:27;102089.59;;;4.38;62.73
65553;BME280;52465;51.560;14.368;2022-12-18T11:01:13;102104.63;;;4.48;62.67
65553;BME280;52465;51.560;14.368;2022-12-18T11:06:22;102102.34;;;4.42;62.85
65553;BME280;52465;51.560;14.368;2022-12-18T11:09:07;102071.78;;;4.30;62.77
65553;BME280;52465;51.560;14.368;2022-12-18T11:11:49;102068.25;;;4.33;62.62
65553;BME280;52465;51.560;14.368;2022-12-18T11:14:27;102094.13;;;4.51;62.75
65553;BME280;52465;51.560;14.368;2022-12-18T11:16:57;102084.69;;;4.50;63.06
65553;BME280;52465;51.560;14.368;2022-12-18T11:19:40;102088.94;;;4.51;63.01
65553;BME280;52465;51.560;14.368;2022-12-18T11:22:24;102070.91;;;4.48;63.17
65553;BME280;52465;51.560;14.368;2022-12-18T11:24:57;102075.06;;;4.53;62.73
65553;BME280;52465;51.560;14.368;2022-12-18T11:27:23;102036.28;;;4.32;63.30
65553;BME280;52465;51.560;14.368;2022-12-18T11:29:50;102061.19;;;4.54;62.90
65553;BME280;52465;51.560;14.368;2022-12-18T11:32:31;102062.09;;;4.53;62.83
65553;BME280;52465;51.560;14.368;2022-12-18T11:35:13;102064.69;;;4.53;62.93
65553;BME280;52465;51.560;14.368;2022-12-18T11:37:46;102052.84;;;4.47;63.31
65553;BME280;52465;51.560;14.368;2022-12-18T11:40:16;102060.41;;;4.51;63.02
65553;BME280;52465;51.560;14.368;2022-12-18T11:42:50;102056.38;;;4.46;63.08
65553;BME280;52465;51.560;14.368;2022-12-18T11:50:50;102056.81;;;4.54;62.73
65553;BME280;52465;51.560;14.368;2022-12-18T11:53:16;102034.06;;;4.42;62.92
65553;BME280;52465;51.560;14.368;2022-12-18T12:01:24;102049.13;;;4.53;63.38
65553;BME280;52465;51.560;14.368;2022-12-18T12:09:25;102056.78;;;4.56;62.62
65553;BME280;52465;51.560;14.368;2022-12-18T12:12:16;102049.00;;;4.56;63.16
65553;BME280;52465;51.560;14.368;2022-12-18T12:22:52;102036.63;;;4.43;63.12
65553;BME280;52465;51.560;14.368;2022-12-18T12:28:36;102062.88;;;4.55;62.66
65553;BME280;52465;51.560;14.368;2022-12-18T12:34:09;102081.72;;;4.58;62.89
65553;BME280;52465;51.560;14.368;2022-12-18T12:37:00;102038.00;;;4.32;62.98
65553;BME280;52465;51.560;14.368;2022-12-18T12:39:32;102064.47;;;4.57;63.17
65553;BME280;52465;51.560;14.368;2022-12-18T12:42:04;102023.31;;;4.32;62.89
65553;BME280;52465;51.560;14.368;2022-12-18T12:44:56;102066.31;;;4.55;63.14
65553;BME280;52465;51.560;14.368;2022-12-18T12:47:35;102039.34;;;4.40;63.04
65553;BME280;52465;51.560;14.368;2022-12-18T12:52:47;102059.78;;;4.46;63.30
65553;BME280;52465;51.560;14.368;2022-12-18T12:55:18;102075.16;;;4.51;62.79
65553;BME280;52465;51.560;14.368;2022-12-18T12:57:58;102083.88;;;4.48;63.17
65553;BME280;52465;51.560;14.368;2022-12-18T13:00:30;102061.97;;;4.37;62.64
65553;BME280;52465;51.560;14.368;2022-12-18T13:06:01;102086.34;;;4.51;62.58
65553;BME280;52465;51.560;14.368;2022-12-18T13:08:31;102090.53;;;4.54;62.84
65553;BME280;52465;51.560;14.368;2022-12-18T13:10:58;102092.91;;;4.59;62.75
65553;BME280;52465;51.560;14.368;2022-12-18T13:13:55;102090.28;;;4.60;62.38
65553;BME280;52465;51.560;14.368;2022-12-18T13:16:23;102091.75;;;4.66;62.67
65553;BME280;52465;51.560;14.368;2022-12-18T13:21:31;102087.00;;;4.74;62.21
65553;BME280;52465;51.560;14.368;2022-12-18T13:26:41;102086.78;;;4.78;62.52
65553;BME280;52465;51.560;14.368;2022-12-18T13:29:07;102062.13;;;4.70;62.34
65553;BME280;52465;51.560;14.368;2022-12-18T13:34:24;102079.69;;;4.82;62.31
65553;BME280;52465;51.560;14.368;2022-12-18T13:36:51;102078.72;;;4.85;62.42
65553;BME280;52465;51.560;14.368;2022-12-18T13:44:38;102071.84;;;4.84;62.47
65553;BME280;52465;51.560;14.368;2022-12-18T13:47:31;102076.88;;;4.87;62.32
65553;BME280;52465;51.560;14.368;2022-12-18T13:49:58;102067.84;;;4.76;62.85
65553;BME280;52465;51.560;14.368;2022-12-18T13:52:26;102066.03;;;4.78;62.04
65553;BME280;52465;51.560;14.368;2022-12-18T13:54:57;102041.75;;;4.62;62.51
65553;BME280;52465;51.560;14.368;2022-12-18T13:57:35;102087.03;;;4.91;62.71
65553;BME280;52465;51.560;14.368;2022-12-18T14:02:53;102088.69;;;4.92;62.42
65553;BME280;52465;51.560;14.368;2022-12-18T14:05:28;102086.09;;;4.92;62.70
65553;BME280;52465;51.560;14.368;2022-12-18T14:08:02;102076.88;;;4.87;62.69
65553;BME280;52465;51.560;14.368;2022-12-18T14:10:30;102093.91;;;4.92;62.28
65553;BME280;52465;51.560;14.368;2022-12-18T14:12:56;102091.38;;;4.91;62.73
65553;BME280;52465;51.560;14.368;2022-12-18T14:15:31;102092.00;;;4.96;62.69
65553;BME280;52465;51.560;14.368;2022-12-18T14:18:03;102085.13;;;4.95;62.31
65553;BME280;52465;51.560;14.368;2022-12-18T14:20:34;102086.09;;;4.92;62.25
65553;BME280;52465;51.560;14.368;2022-12-18T14:25:37;102071.63;;;4.88;62.61
65553;BME280;52465;51.560;14.368;2022-12-18T14:30:35;102079.03;;;4.96;62.86
65553;BME280;52465;51.560;14.368;2022-12-18T14:33:01;102077.34;;;4.95;62.99
65553;BME280;52465;51.560;14.368;2022-12-18T14:35:27;102069.63;;;4.93;62.68
65553;BME280;52465;51.560;14.368;2022-12-18T14:37:52;102067.94;;;4.92;62.45
65553;BME280;52465;51.560;14.368;2022-12-18T14:40:17;102074.81;;;4.93;62.34